Time;durP1;ratioP1;P1;durP2;ratioP2;P2;SDS_P1;SDS_P2;PMS_P1;PMS_P2;Temp;Humidity;BMP_temperature;BMP_pressure;BME280_temperature;BME280_humidity;BME280_pressure;Samples;Min_cycle;Max_cycle;Signal;HPM_P1;HPM_P2
2022/06/30 00:00:27;;;;;;;7.25;5.82;;;;;;;22.43;61.69;93229.16;4667904;30;20176;-93
2022/06/30 00:02:53;;;;;;;7.20;5.38;;;;;;;22.43;61.58;93240.91;4687440;30;20057;-93
2022/06/30 00:05:18;;;;;;;8.10;5.63;;;;;;;22.43;61.52;93246.41;4676731;30;20050;-94
2022/06/30 00:07:45;;;;;;;7.00;5.13;;;;;;;22.42;61.58;93239.44;4655837;30;20116;-93
2022/06/30 00:10:13;;;;;;;6.50;5.25;;;;;;;22.41;61.56;93231.72;4673897;30;20046;-94
2022/06/30 00:12:50;;;;;;;6.40;5.18;;;;;;;22.41;61.56;93245.47;4677785;30;20053;-93
2022/06/30 00:15:16;;;;;;;7.38;5.25;;;;;;;22.41;61.38;93243.47;4695898;30;20060;-93
2022/06/30 00:17:44;;;;;;;6.68;5.30;;;;;;;22.40;61.50;93250.25;4682232;30;20448;-94
2022/06/30 00:20:11;;;;;;;7.32;5.53;;;;;;;22.41;61.43;93251.72;4670733;30;20114;-94
2022/06/30 00:22:38;;;;;;;7.45;5.28;;;;;;;22.42;61.36;93252.47;4707565;30;20068;-94
2022/06/30 00:25:17;;;;;;;6.22;4.82;;;;;;;22.41;61.53;93242.72;4743124;30;20052;-93
2022/06/30 00:27:47;;;;;;;6.47;5.70;;;;;;;22.40;61.16;93242.00;4696563;30;20060;-94
2022/06/30 00:30:17;;;;;;;6.43;5.15;;;;;;;22.41;61.32;93235.19;4687371;30;20112;-93
2022/06/30 00:32:43;;;;;;;7.68;5.78;;;;;;;22.40;61.29;93230.97;4685093;30;20068;-94
2022/06/30 00:35:11;;;;;;;7.88;5.35;;;;;;;22.41;61.40;93235.19;4715383;30;20053;-93
2022/06/30 00:37:38;;;;;;;6.47;4.90;;;;;;;22.42;61.17;93230.44;4694768;30;20061;-94
2022/06/30 00:40:05;;;;;;;7.40;5.72;;;;;;;22.40;61.32;93228.22;4669278;30;20061;-93
2022/06/30 00:42:40;;;;;;;6.35;5.43;;;;;;;22.40;61.28;93225.47;4667614;30;20054;-93
2022/06/30 00:45:06;;;;;;;7.43;4.63;;;;;;;22.39;61.50;93218.47;4682742;30;20063;-96
2022/06/30 00:47:31;;;;;;;7.60;4.90;;;;;;;22.40;61.20;93224.72;4661197;30;21016;-94
2022/06/30 00:49:58;;;;;;;6.88;5.18;;;;;;;22.40;61.36;93224.72;4645101;30;20054;-94
2022/06/30 00:52:24;;;;;;;7.28;5.35;;;;;;;22.40;61.42;93230.97;4620417;31;20107;-94
2022/06/30 00:54:49;;;;;;;6.55;4.75;;;;;;;22.39;61.56;93224.00;4591763;31;20123;-94
2022/06/30 00:57:17;;;;;;;7.30;4.93;;;;;;;22.39;61.20;93218.47;4639135;30;20078;-94
2022/06/30 00:59:43;;;;;;;5.85;5.03;;;;;;;22.40;61.18;93211.69;4622262;30;20101;-93
2022/06/30 01:02:08;;;;;;;6.50;5.05;;;;;;;22.40;61.16;93213.72;4737381;24;20800;-93
2022/06/30 01:04:34;;;;;;;6.50;5.55;;;;;;;22.40;60.97;93210.94;4750851;29;20178;-94
2022/06/30 01:07:03;;;;;;;5.63;4.88;;;;;;;22.39;60.93;93201.94;4741181;30;20066;-94
2022/06/30 01:15:06;;;;;;;6.75;5.20;;;;;;;22.37;61.01;93226.53;4776952;24;20071;-93
2022/06/30 01:17:32;;;;;;;6.35;5.25;;;;;;;22.37;61.06;93229.28;4735454;30;20052;-93
2022/06/30 01:20:01;;;;;;;;;;;;;;;22.39;61.01;93237.75;4723915;30;20055;-93
2022/06/30 01:22:29;;;;;;;8.60;4.93;;;;;;;22.38;60.77;93238.28;4719861;30;19926;-93
2022/06/30 01:25:00;;;;;;;8.13;5.28;;;;;;;22.36;60.90;93230.56;4723526;30;20047;-93
2022/06/30 01:27:28;;;;;;;6.03;4.75;;;;;;;22.36;60.97;93238.09;4720525;30;20053;-93
2022/06/30 01:30:01;;;;;;;5.97;4.43;;;;;;;22.36;60.88;93236.09;4716680;30;20055;-95
2022/06/30 01:32:28;;;;;;;5.85;4.70;;;;;;;22.36;60.87;93238.09;4737791;30;20060;-93
2022/06/30 01:34:59;;;;;;;5.97;4.63;;;;;;;22.36;60.83;93241.59;4670590;30;20053;-93
2022/06/30 01:37:25;;;;;;;7.73;4.67;;;;;;;22.36;60.74;93238.09;4700355;30;20531;-93
2022/06/30 01:39:51;;;;;;;5.88;4.90;;;;;;;22.37;60.76;93232.06;4698548;30;20052;-94
2022/06/30 01:42:18;;;;;;;5.68;4.68;;;;;;;22.34;60.89;93230.38;4722926;30;20053;-94
2022/06/30 01:44:45;;;;;;;7.38;4.57;;;;;;;22.37;60.83;93234.06;4697941;30;20152;-93
2022/06/30 01:47:12;;;;;;;5.88;4.50;;;;;;;22.36;60.65;93243.59;4699453;30;20068;-93
2022/06/30 01:49:47;;;;;;;5.47;4.50;;;;;;;22.37;60.64;93234.06;4706103;30;20093;-94
2022/06/30 01:52:14;;;;;;;5.32;4.70;;;;;;;22.36;61.09;93249.84;4677545;30;20168;-93
2022/06/30 01:54:40;;;;;;;5.78;4.63;;;;;;;22.38;60.67;93250.06;4725175;30;20056;-94
2022/06/30 01:57:07;;;;;;;5.90;4.20;;;;;;;22.36;60.95;93249.13;4669256;30;21846;-93
2022/06/30 01:59:33;;;;;;;6.30;4.40;;;;;;;22.36;60.77;93249.13;4649269;30;20065;-94
2022/06/30 02:02:01;;;;;;;5.63;4.82;;;;;;;22.35;60.87;93245.63;4665251;30;20062;-95
2022/06/30 02:07:11;;;;;;;6.15;4.57;;;;;;;22.36;60.88;93244.34;4679592;30;20080;-93
2022/06/30 02:09:50;;;;;;;5.93;4.63;;;;;;;22.35;61.07;93242.88;4677395;30;20065;-93
2022/06/30 02:12:45;;;;;;;4.93;4.43;;;;;;;22.37;60.74;93236.81;4693466;30;21151;-92
2022/06/30 02:15:18;;;;;;;7.32;5.25;;;;;;;22.37;60.84;93243.06;4688140;30;20069;-94
2022/06/30 02:17:44;;;;;;;6.07;4.55;;;;;;;22.35;60.87;93233.88;4690595;30;20053;-94
2022/06/30 02:20:12;;;;;;;5.65;4.45;;;;;;;22.36;60.59;93241.59;4677515;30;20146;-93
2022/06/30 02:22:39;;;;;;;5.18;4.20;;;;;;;22.33;60.96;93228.16;4727342;24;20146;-94
2022/06/30 02:25:07;;;;;;;4.50;3.60;;;;;;;22.34;60.77;93233.13;4720026;30;20064;-94
2022/06/30 02:27:33;;;;;;;6.70;4.70;;;;;;;22.34;60.54;93232.38;4732744;30;20048;-93
2022/06/30 02:29:59;;;;;;;4.75;3.90;;;;;;;22.34;60.83;93240.66;4713780;30;20064;-94
2022/06/30 02:32:26;;;;;;;4.60;3.90;;;;;;;22.35;60.70;93231.09;4727471;30;20798;-93
2022/06/30 02:35:00;;;;;;;6.22;4.72;;;;;;;22.33;60.62;93225.41;4711003;30;20132;-94
2022/06/30 02:37:27;;;;;;;5.85;4.55;;;;;;;22.35;60.59;93220.84;4694266;30;20108;-93
2022/06/30 02:39:55;;;;;;;5.25;4.25;;;;;;;22.35;60.69;93218.06;4694264;30;20982;-94
2022/06/30 02:42:24;;;;;;;5.85;4.18;;;;;;;22.33;60.40;93228.16;4684767;30;20045;-92
2022/06/30 02:44:51;;;;;;;4.97;4.15;;;;;;;22.34;60.33;93233.13;4714174;30;20053;-92
2022/06/30 02:47:17;;;;;;;5.28;3.63;;;;;;;22.33;60.38;93237.16;4677244;30;20057;-93
2022/06/30 02:49:43;;;;;;;4.55;3.67;;;;;;;22.32;60.71;93235.69;4690389;30;20514;-93
2022/06/30 02:52:11;;;;;;;4.85;4.13;;;;;;;22.34;60.58;93243.41;4690414;30;20745;-95
2022/06/30 02:54:36;;;;;;;4.30;3.80;;;;;;;22.33;60.44;93239.91;4671413;30;20526;-93
2022/06/30 02:57:06;;;;;;;5.75;4.10;;;;;;;22.33;60.65;93239.91;4646481;30;20069;-94
2022/06/30 02:59:32;;;;;;;4.82;3.58;;;;;;;22.34;60.40;93240.66;4652629;30;20074;-94
2022/06/30 03:01:58;;;;;;;4.90;3.65;;;;;;;22.33;60.32;93236.41;4644604;30;20924;-93
2022/06/30 03:04:23;;;;;;;4.72;3.83;;;;;;;22.33;60.28;93241.94;4625795;30;20066;-92
2022/06/30 03:06:55;;;;;;;4.50;3.58;;;;;;;22.32;60.59;93229.44;4627691;30;20288;-94
2022/06/30 03:09:22;;;;;;;4.43;3.83;;;;;;;22.31;60.65;93231.44;4628506;30;20061;-93
2022/06/30 03:11:47;;;;;;;4.45;3.60;;;;;;;22.34;60.28;93226.88;4668680;30;20053;-93
2022/06/30 03:14:24;;;;;;;4.13;3.72;;;;;;;22.33;60.38;93230.91;4688302;30;20425;-93
2022/06/30 03:16:50;;;;;;;4.30;3.78;;;;;;;22.32;60.22;93223.94;4648002;30;20091;-95
2022/06/30 03:19:16;;;;;;;4.30;3.85;;;;;;;22.32;60.10;93221.16;4648105;30;20049;-93
2022/06/30 03:21:42;;;;;;;4.30;3.47;;;;;;;22.31;60.46;93228.69;4643618;30;20248;-94
2022/06/30 03:24:09;;;;;;;5.07;4.32;;;;;;;22.32;60.23;93227.41;4671940;30;20054;-94
2022/06/30 03:26:42;;;;;;;4.72;3.78;;;;;;;22.31;60.29;93220.44;4664483;30;20165;-92
2022/06/30 03:29:07;;;;;;;4.43;3.80;;;;;;;22.32;60.48;93224.66;4671373;30;20368;-95
2022/06/30 03:31:47;;;;;;;4.80;3.80;;;;;;;22.33;60.29;93217.13;4689352;30;20051;-93
2022/06/30 03:34:17;;;;;;;4.97;4.10;;;;;;;22.32;60.01;93208.13;4651219;30;20069;-93
2022/06/30 03:36:51;;;;;;;3.67;3.30;;;;;;;22.31;59.93;93220.44;4668856;30;20062;-92
2022/06/30 03:39:18;;;;;;;4.95;3.55;;;;;;;22.32;60.00;93227.41;4659919;30;20054;-93
2022/06/30 03:41:45;;;;;;;12.75;8.80;;;;;;;22.35;60.24;93223.59;4623147;30;20047;-94
2022/06/30 03:44:13;;;;;;;21.20;12.63;;;;;;;22.35;60.37;93220.09;4698728;30;20080;-95
2022/06/30 03:46:39;;;;;;;6.53;4.95;;;;;;;22.34;60.26;93213.84;4647247;30;20157;-94
2022/06/30 03:49:05;;;;;;;10.55;4.95;;;;;;;22.33;60.29;93212.38;4631953;30;20050;-91
2022/06/30 03:51:30;;;;;;;14.10;5.28;;;;;;;22.33;60.23;93215.13;4659246;30;20658;-92
2022/06/30 03:54:03;;;;;;;20.52;6.25;;;;;;;22.35;60.28;93212.56;4640630;30;20121;-93
2022/06/30 03:56:28;;;;;;;10.15;5.30;;;;;;;22.36;60.40;93218.81;4671047;30;20069;-94
2022/06/30 03:58:54;;;;;;;14.80;6.10;;;;;;;22.40;60.10;93219.94;4663383;30;20075;-93
2022/06/30 04:01:19;;;;;;;10.90;6.13;;;;;;;22.40;59.96;93213.72;4676914;30;20492;-91
2022/06/30 04:03:46;;;;;;;12.00;5.68;;;;;;;22.38;59.92;93222.50;4656748;30;20060;-92
2022/06/30 04:06:11;;;;;;;11.00;5.78;;;;;;;22.41;60.34;93226.94;4677947;30;20071;-89
2022/06/30 04:08:38;;;;;;;16.83;6.00;;;;;;;22.37;58.48;93225.81;4677786;30;20052;-90
2022/06/30 04:11:03;;;;;;;11.23;5.97;;;;;;;22.42;58.81;93216.66;4688025;29;20539;-91
2022/06/30 04:13:30;;;;;;;7.53;4.85;;;;;;;22.15;58.89;93227.13;4719112;30;20056;-91
2022/06/30 04:15:55;;;;;;;7.47;4.63;;;;;;;22.03;59.16;93229.44;4720482;30;20658;-92
2022/06/30 04:18:21;;;;;;;20.73;12.43;;;;;;;21.89;59.49;93233.50;4701999;30;20060;-89
2022/06/30 04:20:48;;;;;;;104.78;64.05;;;;;;;21.84;58.98;93229.63;4736099;30;20052;-88
2022/06/30 04:23:14;;;;;;;35.55;20.40;;;;;;;21.79;59.52;93229.75;4701777;30;20109;-89
2022/06/30 04:25:39;;;;;;;34.80;18.83;;;;;;;21.81;59.90;93227.94;4685364;30;20168;-92
2022/06/30 04:28:05;;;;;;;33.08;12.65;;;;;;;21.76;60.61;93231.56;4665404;30;20142;-90
2022/06/30 04:33:18;;;;;;;17.20;9.55;;;;;;;21.70;61.13;93232.97;4679253;30;20087;-92
2022/06/30 04:35:44;;;;;;;11.77;6.32;;;;;;;21.74;60.78;93234.13;4679800;30;20061;-94
2022/06/30 04:38:09;;;;;;;14.85;7.68;;;;;;;21.64;61.16;93235.88;4685707;30;20088;-93
2022/06/30 04:43:20;;;;;;;42.47;21.02;;;;;;;21.77;61.51;93230.28;4686193;30;20144;-92
2022/06/30 04:45:46;;;;;;;13.63;6.63;;;;;;;21.77;61.25;93229.56;4700158;30;20698;-96
2022/06/30 04:48:13;;;;;;;46.25;15.13;;;;;;;21.80;61.15;93228.47;4704359;30;20061;-95
2022/06/30 04:53:13;;;;;;;95.72;48.92;;;;;;;21.66;62.13;93227.78;4792799;24;20070;-92
2022/06/30 04:55:39;;;;;;;28.30;9.10;;;;;;;21.76;61.55;93222.56;4738775;29;20036;-92
2022/06/30 04:58:06;;;;;;;23.77;7.85;;;;;;;21.72;61.82;93225.66;4733021;30;20051;-96
2022/06/30 05:00:43;;;;;;;46.08;10.00;;;;;;;21.74;61.83;93216.88;4752636;30;20150;-95
2022/06/30 05:03:08;;;;;;;18.50;7.68;;;;;;;21.62;62.53;93216.41;4759517;29;20047;-94
2022/06/30 05:05:35;;;;;;;17.00;8.05;;;;;;;21.54;62.68;93208.09;4756976;29;20756;-91
2022/06/30 05:08:00;;;;;;;16.83;8.15;;;;;;;21.58;62.56;93209.75;4741817;29;20047;-91
2022/06/30 05:10:26;;;;;;;33.00;18.25;;;;;;;21.56;62.36;93215.78;4720522;29;20062;-92
2022/06/30 05:12:51;;;;;;;48.30;28.05;;;;;;;21.72;62.04;93217.41;4731548;29;20055;-91
2022/06/30 05:15:17;;;;;;;43.70;18.98;;;;;;;21.54;63.84;93213.59;4724030;29;20043;-88
2022/06/30 05:17:42;;;;;;;32.72;16.48;;;;;;;21.57;63.74;93220.03;4736044;29;20100;-94
2022/06/30 05:20:08;;;;;;;19.73;8.77;;;;;;;21.46;64.36;93212.03;4726586;29;20075;-90
2022/06/30 05:22:35;;;;;;;27.27;13.35;;;;;;;21.46;64.34;93215.50;4727487;29;21442;-90
2022/06/30 05:27:46;;;;;;;53.47;27.38;;;;;;;21.43;64.28;93216.59;4708941;30;20718;-90
2022/06/30 05:30:14;;;;;;;38.00;18.63;;;;;;;21.49;64.33;93214.44;4719647;30;20055;-91
2022/06/30 05:32:40;;;;;;;21.35;9.45;;;;;;;21.41;64.36;93221.16;4700799;30;20410;-89
2022/06/30 05:35:07;;;;;;;17.42;10.10;;;;;;;21.44;63.88;93220.06;4706470;30;20075;-90
2022/06/30 05:37:34;;;;;;;15.10;9.15;;;;;;;21.43;64.35;93213.13;4722801;30;20136;-89
2022/06/30 05:40:00;;;;;;;19.77;11.52;;;;;;;21.48;64.44;93212.22;4705464;30;20072;-92
2022/06/30 05:42:25;;;;;;;24.05;9.88;;;;;;;21.63;64.15;93215.13;4671497;30;20053;-92
2022/06/30 05:44:50;;;;;;;23.10;15.95;;;;;;;21.51;65.75;93228.41;4665492;30;20575;-91
2022/06/30 05:47:16;;;;;;;33.80;19.73;;;;;;;21.59;65.48;93236.72;4659108;30;20514;-89
2022/06/30 05:49:42;;;;;;;36.50;19.55;;;;;;;21.54;65.79;93232.09;4684510;30;20220;-89
2022/06/30 05:52:07;;;;;;;50.75;21.20;;;;;;;21.54;65.97;93230.09;4669141;30;20065;-88
2022/06/30 05:54:34;;;;;;;46.17;18.30;;;;;;;21.59;65.99;93233.97;4663581;30;20525;-90
2022/06/30 05:56:59;;;;;;;32.42;17.45;;;;;;;21.62;65.44;93235.66;4644422;30;20046;-92
2022/06/30 05:59:25;;;;;;;35.03;15.50;;;;;;;21.63;65.48;93234.41;4672225;30;20518;-90
2022/06/30 06:01:51;;;;;;;28.33;13.65;;;;;;;21.68;65.61;93227.25;4701247;30;20209;-89
2022/06/30 06:04:16;;;;;;;53.97;23.60;;;;;;;21.65;65.60;93233.84;4704979;30;20049;-87
2022/06/30 06:06:43;;;;;;;88.78;44.90;;;;;;;21.73;64.70;93229.88;4693613;30;20065;-92
2022/06/30 06:09:09;;;;;;;66.93;36.83;;;;;;;21.81;64.95;93224.47;4706386;30;20049;-89
2022/06/30 06:11:36;;;;;;;45.20;20.45;;;;;;;21.83;65.86;93221.91;4695473;30;20053;-86
2022/06/30 06:14:01;;;;;;;27.45;17.67;;;;;;;21.88;65.82;93216.25;4702401;30;20052;-90
2022/06/30 06:16:27;;;;;;;40.67;22.02;;;;;;;21.94;64.89;93223.63;4705281;30;20180;-88
2022/06/30 06:18:52;;;;;;;25.38;17.48;;;;;;;21.97;64.28;93223.28;4730241;29;20056;-86
2022/06/30 06:21:21;;;;;;;28.45;19.00;;;;;;;22.03;63.91;93215.66;4723675;29;20085;-93
2022/06/30 06:23:47;;;;;;;20.52;15.23;;;;;;;22.01;63.35;93206.47;4725239;29;21092;-93
2022/06/30 06:26:12;;;;;;;18.70;12.98;;;;;;;21.87;62.86;93214.78;4730129;29;20051;-92
2022/06/30 06:31:24;;;;;;;19.13;12.52;;;;;;;21.94;62.28;93210.59;4751885;29;20112;-89
2022/06/30 06:33:50;;;;;;;30.23;13.48;;;;;;;21.88;61.90;93208.00;4747878;30;20080;-91
2022/06/30 06:36:16;;;;;;;27.02;11.18;;;;;;;21.96;62.07;93212.81;4750193;29;20461;-93
2022/06/30 06:38:43;;;;;;;15.50;9.98;;;;;;;21.92;61.84;93217.94;4746723;30;20048;-90
2022/06/30 06:41:09;;;;;;;19.45;8.93;;;;;;;21.88;61.94;93213.50;4728793;30;21454;-90
2022/06/30 06:43:35;;;;;;;14.35;8.60;;;;;;;21.89;62.00;93209.47;4748040;30;20991;-90
2022/06/30 06:46:01;;;;;;;13.30;7.82;;;;;;;21.93;61.90;93214.63;4731178;30;20056;-94
2022/06/30 06:48:27;;;;;;;17.65;9.77;;;;;;;21.90;62.17;93218.47;4736849;30;20052;-91
2022/06/30 06:50:52;;;;;;;29.27;15.38;;;;;;;21.96;62.07;93221.09;4729354;30;20063;-93
2022/06/30 06:53:18;;;;;;;31.02;17.65;;;;;;;21.97;62.39;93220.53;4709460;30;20199;-92
2022/06/30 06:55:43;;;;;;;29.40;14.75;;;;;;;22.03;62.67;93223.19;4711475;30;20490;-91
2022/06/30 06:58:10;;;;;;;23.67;13.02;;;;;;;22.05;63.32;93217.88;4702584;30;20125;-92
2022/06/30 07:00:35;;;;;;;24.95;11.93;;;;;;;22.13;63.50;93221.41;4732631;30;20458;-93
2022/06/30 07:03:01;;;;;;;20.35;13.27;;;;;;;22.09;63.35;93223.78;4714455;30;20451;-91
2022/06/30 07:05:27;;;;;;;51.88;16.52;;;;;;;22.09;63.26;93221.75;4727825;30;20097;-93
2022/06/30 07:08:02;;;;;;;73.82;22.30;;;;;;;22.12;63.24;93223.44;4732418;30;20160;-91
2022/06/30 07:10:28;;;;;;;49.67;21.20;;;;;;;22.16;63.26;93218.31;4707865;30;20141;-92
2022/06/30 07:12:54;;;;;;;44.95;18.52;;;;;;;22.20;63.48;93218.00;4722401;30;20051;-95
2022/06/30 07:15:20;;;;;;;44.30;19.08;;;;;;;22.19;63.77;93211.75;4747869;29;20485;-94
2022/06/30 07:17:45;;;;;;;106.63;47.08;;;;;;;22.22;63.57;93218.94;4735568;29;20058;-93
2022/06/30 07:20:11;;;;;;;157.48;79.65;;;;;;;22.26;63.88;93215.84;4693467;30;20048;-92
2022/06/30 07:22:36;;;;;;;55.03;30.67;;;;;;;22.19;63.38;93219.25;4675116;30;20067;-91
2022/06/30 07:25:02;;;;;;;73.05;38.53;;;;;;;22.21;62.91;93217.44;4684874;30;20064;-91
2022/06/30 07:27:28;;;;;;;123.88;66.88;;;;;;;22.30;63.10;93218.97;4689202;30;20348;-93
2022/06/30 07:29:53;;;;;;;124.90;65.55;;;;;;;22.30;63.21;93218.25;4704965;30;20175;-94
2022/06/30 07:32:23;;;;;;;114.07;55.55;;;;;;;22.34;63.39;93215.88;4709689;30;20048;-91
2022/06/30 07:34:49;;;;;;;113.72;55.83;;;;;;;22.37;63.61;93225.81;4729593;30;20074;-90
2022/06/30 07:37:17;;;;;;;92.32;47.70;;;;;;;22.38;63.58;93225.25;4682579;30;20693;-92
2022/06/30 07:39:43;;;;;;;76.57;34.45;;;;;;;22.39;63.85;93234.25;4692925;30;20151;-93
2022/06/30 07:42:08;;;;;;;70.50;33.63;;;;;;;22.39;64.18;93228.75;4692411;30;20048;-92
2022/06/30 07:44:34;;;;;;;76.00;33.90;;;;;;;22.38;64.19;93228.03;4695871;30;20571;-92
2022/06/30 07:46:59;;;;;;;55.67;30.92;;;;;;;22.41;64.00;93237.22;4703850;30;20123;-92
2022/06/30 07:49:27;;;;;;;47.53;23.55;;;;;;;22.44;64.21;93234.13;4702317;30;20055;-92
2022/06/30 07:51:53;;;;;;;32.25;16.15;;;;;;;22.42;64.16;93228.41;4731269;30;20060;-93
2022/06/30 07:54:21;;;;;;;27.33;15.73;;;;;;;22.48;63.83;93231.03;4723735;29;20056;-94
2022/06/30 07:56:47;;;;;;;24.42;13.43;;;;;;;22.47;63.45;93221.28;4745480;30;20051;-93
2022/06/30 07:59:13;;;;;;;25.42;13.02;;;;;;;22.45;63.14;93221.81;4726075;29;21002;-92
2022/06/30 08:01:38;;;;;;;36.42;17.25;;;;;;;22.43;62.88;93213.38;4736065;30;20642;-91
2022/06/30 08:04:07;;;;;;;93.15;23.50;;;;;;;22.47;62.71;93222.03;4747765;29;20394;-96
2022/06/30 08:06:32;;;;;;;62.38;24.63;;;;;;;22.52;62.57;93214.88;4723998;30;20043;-94
2022/06/30 08:08:58;;;;;;;89.95;27.75;;;;;;;22.48;62.86;93217.25;4753768;30;20063;-94
2022/06/30 08:11:23;;;;;;;61.95;24.55;;;;;;;22.51;62.63;93211.41;4748254;30;20073;-90
2022/06/30 08:13:49;;;;;;;52.55;21.88;;;;;;;22.51;62.67;93203.13;4768126;30;20059;-92
2022/06/30 08:16:20;;;;;;;57.70;23.92;;;;;;;22.56;62.50;93212.50;4754068;29;20051;-90
2022/06/30 08:18:46;;;;;;;63.80;22.67;;;;;;;22.53;62.46;93216.34;4730891;30;20108;-90
2022/06/30 08:21:11;;;;;;;53.63;26.50;;;;;;;22.56;62.26;93216.00;4762263;29;20051;-88
2022/06/30 08:23:37;;;;;;;67.13;31.35;;;;;;;22.64;62.42;93210.53;4741135;30;20062;-92
2022/06/30 08:26:02;;;;;;;75.25;41.42;;;;;;;22.65;62.07;93219.53;4738708;30;20055;-93
2022/06/30 08:28:28;;;;;;;107.93;50.35;;;;;;;22.66;62.12;93210.00;4737615;30;20055;-91
2022/06/30 08:30:54;;;;;;;99.78;47.70;;;;;;;22.68;62.19;93212.94;4747617;30;20256;-90
2022/06/30 08:33:19;;;;;;;110.88;51.58;;;;;;;22.68;61.88;93213.69;4751120;29;20063;-91
2022/06/30 08:35:45;;;;;;;113.65;50.88;;;;;;;22.69;62.12;93217.91;4733973;29;20047;-90
2022/06/30 08:38:11;;;;;;;98.68;50.28;;;;;;;22.68;61.95;93212.94;4753832;30;20055;-92
2022/06/30 08:43:23;;;;;;;103.70;47.58;;;;;;;22.79;61.77;93224.41;4765811;29;20150;-88
2022/06/30 08:45:48;;;;;;;98.30;52.10;;;;;;;22.86;61.71;93214.72;4750658;30;20059;-90
2022/06/30 08:48:13;;;;;;;95.97;52.92;;;;;;;22.84;61.86;93223.53;4759170;29;20035;-94
2022/06/30 08:50:40;;;;;;;112.78;59.72;;;;;;;22.95;61.37;93218.97;4760509;30;21252;-92
2022/06/30 08:53:06;;;;;;;109.57;60.53;;;;;;;22.94;61.60;93207.22;4742510;30;20055;-92
2022/06/30 08:55:32;;;;;;;122.00;64.68;;;;;;;22.94;61.42;93207.22;4761164;30;20957;-93
2022/06/30 08:58:02;;;;;;;112.32;64.93;;;;;;;22.95;61.53;93214.19;4760737;30;20142;-92
2022/06/30 09:00:28;;;;;;;118.70;63.30;;;;;;;23.01;61.22;93217.53;4734568;30;20051;-91
2022/06/30 09:02:56;;;;;;;127.85;65.47;;;;;;;23.01;61.45;93209.25;4754564;30;20055;-91
2022/06/30 09:05:22;;;;;;;115.78;68.25;;;;;;;23.05;61.50;93211.66;4756828;30;20178;-93
2022/06/30 09:07:47;;;;;;;108.65;66.85;;;;;;;23.06;61.44;93213.13;4733617;30;20051;-93
2022/06/30 09:10:13;;;;;;;136.38;81.85;;;;;;;23.11;61.37;93210.22;4745198;29;20079;-92
2022/06/30 09:13:04;;;;;;;137.25;81.45;;;;;;;23.05;61.66;93214.41;4742839;30;20055;-93
2022/06/30 09:15:38;;;;;;;158.20;88.82;;;;;;;23.06;61.39;93213.88;4765344;29;20051;-93
2022/06/30 09:18:04;;;;;;;156.45;89.25;;;;;;;23.10;61.49;93221.78;4758316;29;20063;-93
2022/06/30 09:20:38;;;;;;;169.57;102.95;;;;;;;23.07;61.60;93215.34;4748239;29;22163;-92
2022/06/30 09:23:24;;;;;;;180.07;106.57;;;;;;;23.05;61.61;93219.94;4748119;29;20062;-94
2022/06/30 09:25:51;;;;;;;181.13;105.95;;;;;;;23.09;61.89;93225.81;4771717;30;20078;-92
2022/06/30 09:28:42;;;;;;;174.30;104.60;;;;;;;23.03;61.81;93231.50;4729924;29;20085;-93
2022/06/30 09:31:15;;;;;;;171.00;99.80;;;;;;;23.06;61.78;93230.41;4781922;29;20059;-92
2022/06/30 09:34:02;;;;;;;;;;;;;;;;;;;;;
2022/06/30 09:42:44;;;;;;;164.30;94.22;;;;;;;23.11;61.46;93223.25;5263327;24;20063;-92
2022/06/30 09:48:50;;;;;;;193.60;99.57;;;;;;;23.09;61.82;93226.56;5149855;24;20144;-95
2022/06/30 09:51:24;;;;;;;198.52;100.60;;;;;;;23.10;61.63;93213.50;4737760;29;20054;-95
2022/06/30 09:54:36;;;;;;;185.18;103.10;;;;;;;23.09;61.63;93217.56;4978287;24;20055;-95
2022/06/30 09:57:04;;;;;;;200.88;104.30;;;;;;;23.13;61.49;93215.91;4746405;24;20059;-96
2022/06/30 10:00:05;;;;;;;188.52;106.68;;;;;;;23.13;61.48;93215.19;4760363;29;20051;-94
2022/06/30 10:02:39;;;;;;;191.23;102.13;;;;;;;23.13;61.58;93221.44;4735928;29;20103;-95
2022/06/30 10:12:57;;;;;;;191.23;105.35;;;;;;;23.13;61.54;93218.69;4770575;29;20067;-95
2022/06/30 10:15:39;;;;;;;175.60;103.88;;;;;;;23.12;61.52;93219.22;4740932;30;20076;-94
2022/06/30 10:18:23;;;;;;;172.93;97.55;;;;;;;23.13;61.47;93220.69;4746157;30;20586;-95
2022/06/30 10:48:15;;;;;;;135.00;91.50;;;;;;;23.23;61.41;93202.34;1847021;24;20119;-91
2022/06/30 10:50:42;;;;;;;108.75;75.82;;;;;;;23.25;61.23;93194.25;4760913;29;20058;-92
2022/06/30 10:53:10;;;;;;;116.80;78.70;;;;;;;23.21;61.46;93210.41;4789772;29;20039;-92
2022/06/30 10:55:54;;;;;;;113.95;76.68;;;;;;;23.19;61.49;93193.66;4770807;29;20527;-92
2022/06/30 10:58:30;;;;;;;109.57;73.13;;;;;;;23.22;61.53;93203.63;4774201;29;20070;-94
2022/06/30 11:01:10;;;;;;;123.03;72.82;;;;;;;23.23;61.82;93205.81;4786574;29;20949;-93
2022/06/30 11:03:38;;;;;;;102.13;67.07;;;;;;;23.24;61.42;93201.03;4802378;29;20039;-94
2022/06/30 11:06:06;;;;;;;103.55;65.05;;;;;;;23.23;61.52;93194.78;4791210;29;20070;-92
2022/06/30 11:08:47;;;;;;;103.25;66.97;;;;;;;23.21;61.60;93193.88;4750089;29;20120;-90
2022/06/30 11:11:24;;;;;;;96.07;62.78;;;;;;;23.22;61.50;93190.56;4773941;29;20055;-94
2022/06/30 11:14:02;;;;;;;107.55;70.38;;;;;;;23.28;61.28;93186.91;4774618;29;20051;-92
2022/06/30 11:16:28;;;;;;;168.10;92.60;;;;;;;23.29;61.12;93189.13;4771471;29;20658;-92
2022/06/30 11:18:53;;;;;;;159.80;90.22;;;;;;;23.31;61.15;93181.03;4755376;29;20630;-89
2022/06/30 11:21:19;;;;;;;162.73;88.82;;;;;;;23.32;61.19;93181.75;4737171;29;21340;-93
2022/06/30 11:23:56;;;;;;;198.15;96.93;;;;;;;23.30;61.35;93187.09;4748114;29;20059;-88
2022/06/30 11:29:13;;;;;;;198.73;107.25;;;;;;;23.36;60.94;93182.16;4754452;29;20084;-90
2022/06/30 11:31:39;;;;;;;175.25;97.57;;;;;;;23.42;61.13;93175.16;4762787;29;20058;-94
2022/06/30 11:34:18;;;;;;;170.02;92.00;;;;;;;23.38;61.10;93177.56;4726347;29;20059;-92
2022/06/30 11:36:53;;;;;;;185.03;93.73;;;;;;;23.37;61.21;93170.56;4689848;29;20055;-91
2022/06/30 11:39:20;;;;;;;170.80;88.78;;;;;;;23.41;60.96;93170.91;4758609;29;20051;-92
2022/06/30 11:41:58;;;;;;;164.55;85.93;;;;;;;23.40;61.09;93171.47;4734947;30;20126;-93
2022/06/30 11:44:34;;;;;;;168.43;85.68;;;;;;;23.35;61.36;93164.84;4705497;30;20056;-90
2022/06/30 11:47:11;;;;;;;367.60;117.15;;;;;;;23.37;61.15;93154.00;4738150;30;20047;-94
2022/06/30 11:50:09;;;;;;;309.20;155.70;;;;;;;23.42;61.07;93155.84;4738175;30;20059;-94
2022/06/30 11:52:46;;;;;;;262.27;132.07;;;;;;;23.45;61.15;93145.72;4759548;30;20047;-93
2022/06/30 11:55:12;;;;;;;233.35;120.63;;;;;;;23.48;60.91;93150.16;4695246;30;20053;-92
2022/06/30 11:57:41;;;;;;;246.38;117.05;;;;;;;23.51;60.67;93149.06;4688733;30;20060;-95
2022/06/30 12:00:11;;;;;;;217.45;108.75;;;;;;;23.46;60.93;93138.94;4649364;30;20049;-92
2022/06/30 12:02:37;;;;;;;228.18;112.72;;;;;;;23.52;60.55;93150.56;4680077;30;20119;-94
2022/06/30 12:05:04;;;;;;;192.55;98.90;;;;;;;23.54;60.54;93143.19;4653813;30;20049;-92
2022/06/30 12:07:32;;;;;;;203.73;103.63;;;;;;;23.57;60.27;93146.88;4663619;30;20095;-94
2022/06/30 12:10:44;;;;;;;232.05;113.22;;;;;;;23.51;60.75;93146.28;4687254;30;20072;-96
2022/06/30 12:13:19;;;;;;;253.68;119.90;;;;;;;23.54;60.55;93143.19;4670460;30;20056;-95
2022/06/30 12:15:51;;;;;;;265.25;129.20;;;;;;;23.53;60.43;93141.72;4712716;30;20060;-94
2022/06/30 12:18:42;;;;;;;327.27;146.82;;;;;;;23.51;60.41;93136.00;4706929;30;20049;-94
2022/06/30 12:21:08;;;;;;;315.10;149.30;;;;;;;23.62;60.30;93142.44;4712617;30;20040;-91
2022/06/30 12:23:34;;;;;;;268.08;137.82;;;;;;;23.63;60.28;93146.69;4674827;30;20125;-92
2022/06/30 12:26:03;;;;;;;271.27;143.57;;;;;;;23.68;59.83;93145.78;4707082;30;20053;-90
2022/06/30 12:28:44;;;;;;;283.80;151.15;;;;;;;23.67;59.97;93144.28;4726807;30;20075;-91
2022/06/30 12:31:09;;;;;;;;;;;;;;;23.56;60.22;93137.13;4704710;30;20055;-94
2022/06/30 12:33:39;;;;;;;334.35;155.18;;;;;;;23.62;60.18;93134.91;4724013;30;20003;-91
2022/06/30 12:36:04;;;;;;;431.10;300.63;;;;;;;23.64;60.58;93129.56;4697061;30;20059;-92
2022/06/30 12:38:42;;;;;;;248.90;140.85;;;;;;;23.69;60.46;93130.69;4718552;30;20120;-94
2022/06/30 12:41:08;;;;;;;226.43;129.68;;;;;;;23.72;59.87;93137.88;4686431;30;20185;-90